Harriman, Wyoming
Current Conditions -  °F | °C
As of 2:56 AM on Sunday 23 Nov 2014 (Local Time) from KFEW Reporting Station
Broken Clouds Broken Clouds  
Wind Chill: 24°   Ceiling: 9000
Heat Index: 30°   Visibility: 10mi
Dew Point: 20°   Wind: 7mph
Humidity: 67%   Direction: 40°NE
Pressure: 29.65"   Gusts: 17mph
Location:  41.0966°N, 105.138°W
Report Text: KFEW 230956Z AUTO 04006G15KT 10SM BKN090 M01/M06 A2965 RMK AO2 PRESRR SLP025 T10091064 $
Loading
Personal Weather Stations






























Interactive Weather Map New forecast layout! Learn more

10-Day Weather Forecast

Advertisements
Track Severe Weather on mobile